JP Observations

RJAA 170030Z 01008KT 3200 R34L/P2000N R34R/P2000N -RA BR FEW002 BKN003 BKN006 22/21 Q1014 TEMPO 3000 -RA BR RMK 1ST002 5ST003 7ST006 A2995 RJBB 170030Z 36005KT 9999 FEW010 27/23 Q1013 NOSIG RJCC 170030Z 18011KT 2000 R19R/P2000N R19L/P2000N -SHRA BR FEW002 BKN003 BKN004 19/19 Q1015 RMK 1ST002 5ST003 7ST004 A2998 RJCK 170042Z 14007KT 1000 R17/1000V1400D BCFG -SHRA BR SCT001 BKN002 BKN003 18/18 Q1016 RMK 4ST001 6ST002 7ST003 A3002 RJCT 170042Z VRB01KT 9999 SCT005 BKN007 19/17 Q1017 RMK 3ST005 7ST007 A3004 RJFF 170030Z VRB03KT 9999 FEW025 BKN/// 28/23 Q1011 BECMG 15006KT RMK 1CU025 A2987 RJGG 170030Z 23003KT 9999 FEW010 SCT020 BKN/// 26/23 Q1013 NOSIG RJNG 170025Z 28004KT 240V340 9999 FEW015 SCT025 BKN035 26/21 Q1013 RMK 2CU015 3CU025 5CU035 A2993 RJSA 170036Z 03004KT 330V080 5000 BR FEW001 SCT002 BKN004 19/18 Q1014 RMK 2ST001 4ST002 6ST004 A2995 RJSF 170035Z VRB01KT 9999 BR FEW003 SCT004 BKN005 21/20 Q1015 RMK 1ST003 3ST0045ST005 A3000 4000NE-SE RJSF 170043Z VRB01KT 9999 BR FEW004 SCT005 BKN006 21/20 Q1015 RMK 1ST004 3ST0055ST006 A3000 4000NE-SE RJSH 170028Z 06005KT 020V100 3200 BCFG BR FEW001 SCT003 20/18 Q1014 RMK 2ST001 4ST003 A2995 RJSS 170033Z 33003KT 270V360 9999 FEW002 BKN006 BKN009 22/20 Q1014 RMK 1ST002 5ST006 7ST009 A2996 RJSU 170029Z 33004KT 7000 FEW001 SCT005 BKN010 22/20 Q1014 RMK 1ST001 3ST005 6ST010 A2996 RJTE 170034Z 03004KT 300V040 5000 BR FEW007 SCT015 BKN060 22/21 Q1014 RMK 1ST007 3CU015 5SC060 A2995 RJTI 170044Z 08003KT 050V110 7000 FEW012 BKN015 BKN025 24/22 Q1014 RMK 1CU012 5SC015 7SC025 A2995 RJTO 170032Z VRB02KT 9999 -SHRA FEW004 SCT008 BKN012 22/22 Q1015 RMK 1ST004 4ST008 5CU012 A2998 RJTT 170030Z 08002KT 5000 -RA BR FEW008 BKN017 BKN020 23/22 Q1014 NOSIG RMK 1ST008 5SC017 7SC020 A2995 RJTY 170026Z AUTO 00000KT 10SM SCT013 OVC032 22/19 A3001 RMK AO2 SLP161 FZRANO $ ROAH 170030Z 09014KT 060V130 9999 BKN014 31/26 Q1004 WS R18 RMK 5CU014 A2967 RJAH 170020Z 04004KT 010V070 8000 FEW004 BKN006 OVC010 22/21 Q1014 RMK 2ST004 7ST006 8ST010 A2996 VIS N 15KM 2ST004 NE RJCK 170006Z 15008KT 1500 R17/1600N BCFG -SHRA BR SCT001 BKN002 BKN003 18/18 Q1016 RMK 3ST001 5ST002 7ST003 A3003 RJCK 170018Z 14008KT 1400 R17/1400V2000D BCFG -SHRA BR SCT001 BKN002 BKN003 18/18 Q1016 RMK 3ST001 5ST002 7ST003 A3003 RJOZ 170023Z 12006KT 9999 FEW010 SCT020 BKN030 26/23 Q1012 RMK 1ST010 4CU020 7CU030 A2989 RJSA 170005Z 06004KT 010V110 1000 R24/0400V1700U BCFG BR BKN001 BKN002 18/17 Q1014 RMK 5ST001 7ST002 A2995 RJSA 170007Z 05004KT 010V110 1400 R24/0800VP1800U BCFG BR SCT001 BKN002 18/17 Q1014 RMK 4ST001 7ST002 A2995 RJSA 170018Z 06004KT 010V090 1600 R24/0800VP1800U BCFG BR SCT001 BKN002 18/17 Q1014 RMK 4ST001 7ST002 A2995 RJSA 170021Z 05004KT 010V080 2500 R24/0800VP1800U BCFG BR SCT001 BKN002 BKN003 18/18 Q1014 RMK 3ST001 5ST002 7ST003 A2995 RJSA 170024Z 04003KT 010V080 3500 BCFG BR FEW001 SCT002 BKN003 18/18 Q1014 RMK 2ST001 4ST002 6ST003 A2995 RJSF 170017Z VRB02KT 7000 BR FEW002 SCT003 BKN004 20/20 Q1016 RMK 1ST002 3ST0035ST004 A3000 3000NE-SE RJSS 170010Z 33003KT 300V010 8000 -SHRA FEW001 BKN004 BKN006 21/20 Q1014 RMK 1ST001 5ST004 7ST006 A2996 RJTK 170024Z 33005KT 2500 -SHRA BR FEW003 BKN005 BKN008 22/21 Q1014 RMK 2ST003 5ST005 7ST008 A2996 RJTO 170007Z VRB02KT 9999 -SHRA FEW004 BKN008 BKN015 FEW020CB 22/21 Q1014 RMK 1ST004 5ST008 6CU015 1CB020 A2997 CB 20KM SE MOV E RJTT 170013Z 08002KT 5000 -RA BR FEW008 SCT013 BKN020 23/22 Q1014 RMK 1ST008 3SC013 7SC020 A2995 RJAA 170000Z 03007KT 3200 -RA BR FEW002 BKN003 BKN004 22/21 Q1014 TEMPO 3000 BR RJAA 170000Z 03007KT 3200 -RA BR FEW002 BKN003 BKN004 22/21 Q1014 TEMPO 3000 BRRMK 1ST002 5ST003 6ST004 A2996 RJAF 170000Z VRB04KT 9999 FEW020 24/18 Q1016 RJAH 170000Z 03006KT 6000 FEW003 BKN006 OVC010 22/21 Q1014 RJAW 170000Z 13011KT 9999 FEW010 BKN230 29/26 Q1013 RMK 1CU010 A2992 RJBB 170000Z 02007KT 9999 FEW010 SCT020 27/22 Q1013 NOSIG RJBD 170000Z 10004KT 070V150 9999 FEW015 SCT045 BKN070 26/23 Q1013 RJBE 170000Z 04005KT 9999 FEW015 SCT035 BKN/// 26/22 Q1013 RJBT 170000Z VRB02KT 9999 FEW005 BKN010 25/22 Q1013 RJCB 170000Z VRB01KT 9999 FEW004 SCT005 BKN006 18/17 Q1016 RJCC 170000Z 19010KT 2000 R19R/P2000N R19L/P2000N -SHRA BR FEW002 BKN003 BKN004 18/18 Q1015 RJCC 170000Z 19010KT 2000 R19R/P2000N R19L/P2000N -SHRA BR FEW002 BKN003 BKN00418/18 Q1015 RMK 1ST002 5ST003 7ST004 A2998 RJCH 170000Z 18005KT 9999 FEW010 SCT018 BKN110 20/18 Q1014 RJCK 170004Z 14007KT 100V180 1500 R17/1500N BCFG -SHRA BR SCT001 BKN002 BKN003 18/18 Q1016 RMK 3ST001 5ST002 7ST003 A3003 RJCK 170000Z 14007KT 100V180 1500 R17/1600N BCFG -SHRA BR SCT001 BKN002 BKN003 18/18 Q1016 RJCM 170000Z 19013KT 9999 FEW010 SCT080 23/17 Q1014 RJCN 170000Z 20004KT 2300 R08/2000N -DZ BR FEW002 BKN003 18/18 Q1017 RJCO 170000Z 14015KT 9999 FEW020 SCT250 24/18 Q1014 RJCW 170000Z 17010KT 130V190 9999 SCT020 24/18 Q1013 RJDC 170000Z 10010KT 9999 FEW010 BKN070 BKN/// 26/24 Q1012 RJDK 170000Z AUTO 05003KT 360V130 9999 SCT019 BKN023 OVC029 24/23 Q1011 RJDT 170000Z 07010KT 030V090 9999 FEW008 SCT009 BKN010 23/21 Q1012 RJEB 170000Z 04004KT 360V060 9999 FEW040 SCT120 22/18 Q1014 RJEC 170000Z 19011KT 160V230 9999 FEW025 BKN/// 25/17 Q1014 RJFE 170000Z 07008KT 5000 -SHRA BR FEW003 SCT005 BKN007 24/23 Q1011 RJFF 170000Z VRB01KT 9999 FEW025 SCT070 BKN/// 27/22 Q1011 BECMG 15006KT RJFF 170000Z VRB01KT 9999 FEW025 SCT070 BKN/// 27/22 Q1011 BECMG 15006KT RMK 1CU025 4AC070 A2987 RJFG 170000Z 09006KT 050V130 9999 FEW002 SCT010 BKN/// 26/25 Q1012 RJFK 170000Z 11004KT 9999 FEW010 SCT050 BKN070 26/24 Q1013 RJFK 170000Z 11004KT 9999 FEW010 SCT050 BKN070 26/24 Q1013 RMK 1CU010 4SC050 6AC070 A2991 RJFM 170000Z 02003KT 350V130 9000 FEW008 BKN015 BKN025 26/23 Q1012 RJFO 170000Z 04004KT 7000 FEW003 SCT004 BKN010 24/24 Q1012 RJFR 170000Z 11007KT 050V180 5000 -SHRA BR FEW004 SCT008 BKN015 24/21 Q1012 RJFS 170000Z 06004KT 010V100 6000 FEW040 BKN060 26/19 Q1011 RJFT 170000Z 35003KT 310V060 8000 FEW040 SCT050 BKN/// 27/23 Q1012 RJFU 170000Z 16008KT 8000 FEW020 BKN045 27/24 Q1011 RJGG 170000Z 22003KT 170V240 9999 FEW010 SCT020 BKN030 24/22 Q1013 NOSIG RJKA 170000Z 09008KT 9999 FEW008 SCT011 30/28 Q1009 RJKI 170000Z AUTO 11010KT 080V150 9999 FEW010 30/28 Q1009 RJNK 170000Z 32005KT 9999 FEW030 26/21 Q1013 RJNT 170000Z 32003KT 270V360 9999 FEW020 SCT060 BKN070 26/21 Q1013 RJNW 170000Z VRB03KT 9999 FEW010 SCT015 BKN025 23/20 Q1014 RJOA 170000Z 14004KT 070V190 9999 FEW010 BKN025 24/20 Q1014 RJOB 170000Z 15003KT 080V200 9999 FEW008 SCT010 BKN035 25/22 Q1014 RJOC 170000Z 05006KT 9999 FEW015 26/21 Q1012 RJOH 170000Z 05007KT 020V080 9999 FEW015 25/20 Q1013 RJOI 162355Z 08005KT 9999 FEW035 BKN120 BKN210 26/22 A2992 RMK SPL131 T02610222 10267 20239 52010 RJOK 170000Z 16003KT 110V200 9999 FEW020 BKN050 27/21 Q1013 RJOM 170000Z 33004KT 300V360 9999 FEW030 SCT050 24/23 Q1012 RJOO 170000Z VRB03KT 9999 FEW015 SCT025 27/24 Q1013 RJOO 170000Z VRB03KT 9999 FEW015 SCT025 27/24 Q1013 RMK 1CU015 3CU025 A2992 RJOR 170000Z 02005KT 9999 FEW015 SCT020 24/21 Q1013 RJOS 170000Z 13003KT 9999 FEW012 BKN050 26/23 Q1013 RJOT 170000Z 05003KT 340V090 9999 FEW030 26/22 Q1013 RJOW 170000Z 33003KT 290V040 9999 FEW015 BKN/// 25/22 Q1012 RJOY 170000Z 05004KT 360V110 9999 FEW010 SCT025 28/23 Q1013 RJSA 170000Z 06004KT 010V110 0800 R24/0400V1600N FG BKN001 BKN002 18/17 Q1014 RJSC 170000Z VRB02KT 9999 FEW030 SCT040 BKN050 24/20 Q1014 RJSD 170000Z AUTO 06007KT 040V130 9999 FEW011 BKN014 BKN050 25/21 Q1013 RJSF 170000Z 02003KT 7000 BR FEW002 BKN003 BKN005 20/20 Q1016 RJSI 170000Z 22003KT 170V270 9999 FEW010 SCT020 BKN030 22/20 Q1014 RJSK 170000Z 19003KT 140V260 9999 FEW015 SCT030 BKN035 24/20 Q1014 RJSM 170000Z VRB03KT 4000 BR FEW001 BKN003 BKN008 18/18 Q1014 RJSN 170000Z VRB05KT 9999 FEW010 SCT020 24/22 Q1013 RJSR 170000Z VRB02KT 9999 FEW015 SCT030 BKN070 24/20 Q1013 RJSS 170000Z 34003KT 280V040 7000 -SHRA FEW001 SCT004 BKN006 21/20 Q1014 RJSY 170000Z 27003KT 240V320 9999 FEW007 SCT030 BKN040 25/23 Q1014 RJTF 170000Z VRB02KT 5000 BR FEW008 BKN020 BKN030 23/21 Q1014 RJTI 170000Z 06003KT 030V100 3500 BR FEW010 BKN015 BKN025 23/22 Q1014 RJTL 170049Z VRB02KT 8000 FEW005 SCT008 BKN015 23/21 Q1014 RMK 1ST005 4ST008 7CU015 A2995 RJTO 170000Z VRB02KT 9999 -TSRA FEW004 BKN008 BKN015 FEW020CB 22/22 Q1014 RJTT 170000Z 09002KT 4500 -RA BR FEW008 BKN015 BKN020 23/22 Q1014 BECMG 6000 NSW RJTT 170000Z 09002KT 4500 -RA BR FEW008 BKN015 BKN020 23/22 Q1014 BECMG 6000 NSW RMK 1ST008 5SC015 7SC020 A2996 RJTY 162356Z AUTO 00000KT 10SM BKN011 22/18 A3002 RMK AO2 SLP165 70006 T02180182 10218 20196 51014 FZRANO $ ROAH 170000Z 09013G26KT 050V130 9999 SCT013 31/26 Q1004 ROAH 170000Z 09013G26KT 050V130 9999 SCT013 31/26 Q1004 RMK 3CU013 A2967 RODN 162356Z AUTO 07013G21KT 10SM FEW017 31/26 A2970 RMK AO2 PK WND 08028/49 SLP062 T03080260 10308 20283 58001 $ ROIG 170002Z 06020KT 8000 R04/1200VP1800U -SHRA FEW009 SCT030 BKN060 28/28 Q1002 RMK 2CU009 4CU030 6SC060 A2959 ROIG 170000Z 06020KT 8000 R04/1200VP1800U -SHRA FEW009 SCT030 BKN060 28/28 Q1002 ROMD 170000Z AUTO VRB08KT 9999 FEW009 SCT011 30/27 Q1007 ROMY 170000Z 08015KT 9999 VCSH FEW014 SCT029 30/26 Q1002 RORS 170000Z 07018KT 9999 -SHRA FEW014 SCT020 29/27 Q1002 ROYN 170000Z AUTO 05017KT 9999 FEW012 SCT021 BKN024 //////TCU 30/28 Q1002 RJNS 170000Z VRB02KT 9999 FEW003 BKN/// 23/23 Q1014 ROTM 162356Z COR 09017G23KT 9999 FEW011 SCT020 BKN040 29/26 A2972 RMK PK WND 07026/2305 SLP046 60000 T02940261 10294 20283 54000 ROTM 162356Z 08019G25KT 10SM FEW011 SCT020 BKN040 29/26 A2972 RMK AO2 PK WND 07026/2305 SLP046 60000 T02940261 10300 20283 58001